Portada
METAR-TAF:

METAR-TAF

Aeropuertos :

Aurillac, Francia

latitud: 44-53N, longitud: 002-25E, altitud: 639 m

Observación

El informe se hizo hace 17 minutos, a las 08:00 UTC
Viento 3 kt del este, variando entre este-noreste y sureste
Temperatura 10°C
Humedad 57%
Presión 1025 hPa
Visibilidad 10 km o más
Cielo nuboso a una altura de 2600 ft

METAR: LFLW 280800Z AUTO 09003KT 070V130 9999 BKN026 10/02 Q1025 NOSIG

Hora: 10:17 (08:17 UTC)

Pronóstico

El informe se hizo hace 3 horas y 17 minutos, a las 05:00 UTC
Pronóstico válido del 28 a las 06 UTC al 28 a las 15 UTC
Viento 5 kt del este-sureste
Visibilidad 10 km o más
sin nubes por debajo de 1500 m y sin presencia de cumulonimbus.
Evolucionando progresivamente
del 28 a las 10 UTC al 28 a las 12 UTC
Viento 5 kt del oeste
Escasas nubes a una altura de 5000 ft

TAF: LFLW 280500Z 2806/2815 12005KT CAVOK BECMG 2810/2812 27005KT FEW050

Observaciones y pronósticos meteorológicos de más de 4000 aeropuertos (mensajes METAR y TAF).

Los puntos amarillos y rojos representan las estaciones disponibles.

Ponga el ratón en el punto deseado para ver el nombre de la estación.

Haga clic para ver las observaciones y los pronósticos meteorológicos.

Para cambiar el mapa : haga clic en los botones verdes con una cruz de color negro para hacer un zoom, en el botón verde con un guión para alejar o en las flechas verdes para mapas adyacentes.


METAR-TAF: